createdAt,value
2022-11-05T00:00:38.327Z,39.20
2022-11-05T00:03:28.867Z,39.20
2022-11-05T00:06:15.527Z,37.80
2022-11-05T00:09:02.545Z,38.80
2022-11-05T00:11:53.661Z,40.90
2022-11-05T00:14:40.678Z,39.10
2022-11-05T00:17:08.641Z,38.90
2022-11-05T00:19:36.821Z,38.10
2022-11-05T00:22:23.423Z,37.20
2022-11-05T00:25:09.927Z,36.70
2022-11-05T00:27:37.901Z,37.40
2022-11-05T00:30:07.379Z,38.60
2022-11-05T00:32:37.891Z,38.60
2022-11-05T00:35:09.280Z,37.80
2022-11-05T00:37:37.629Z,35.70
2022-11-05T00:40:07.254Z,35.30
2022-11-05T00:42:54.085Z,35.20
2022-11-05T00:48:08.584Z,35.20
2022-11-05T00:50:36.930Z,34.70
2022-11-05T00:53:05.935Z,35.50
2022-11-05T00:55:43.438Z,36.80
2022-11-05T00:58:19.784Z,34.50
2022-11-05T01:00:59.015Z,35.30
2022-11-05T01:03:30.177Z,36.30
2022-11-05T01:06:07.346Z,35.50
2022-11-05T01:08:35.730Z,34.90
2022-11-05T01:11:34.307Z,35.00
2022-11-05T01:14:04.174Z,35.00
2022-11-05T01:16:32.515Z,34.40
2022-11-05T01:19:01.599Z,35.40
2022-11-05T01:21:29.808Z,34.00
2022-11-05T01:23:57.853Z,33.90
2022-11-05T01:26:27.256Z,32.00
2022-11-05T01:28:57.862Z,32.50
2022-11-05T01:31:26.879Z,33.50
2022-11-05T01:33:54.861Z,31.60
2022-11-05T01:36:22.940Z,33.30
2022-11-05T01:38:50.988Z,32.80
2022-11-05T01:41:18.957Z,32.00
2022-11-05T01:43:50.195Z,31.20
2022-11-05T01:46:23.907Z,32.30
2022-11-05T01:49:00.053Z,28.40
2022-11-05T01:51:30.737Z,29.30
2022-11-05T01:54:06.152Z,29.10
2022-11-05T01:56:38.722Z,30.50
2022-11-05T01:59:12.077Z,30.50
2022-11-05T02:01:40.401Z,30.10
2022-11-05T02:04:16.767Z,31.20
2022-11-05T02:06:48.157Z,33.50
2022-11-05T02:09:22.741Z,33.60
2022-11-05T02:11:51.844Z,32.40
2022-11-05T02:14:20.524Z,33.10
2022-11-05T02:16:48.695Z,34.30
2022-11-05T02:19:32.125Z,32.30
2022-11-05T02:22:35.526Z,31.00
2022-11-05T02:25:43.949Z,30.70
2022-11-05T02:28:27.379Z,32.60
2022-11-05T02:30:59.644Z,31.80
2022-11-05T02:33:56.989Z,32.20
2022-11-05T02:36:40.126Z,31.10
2022-11-05T02:39:17.284Z,31.70
2022-11-05T02:42:00.609Z,33.40
2022-11-05T02:44:41.515Z,32.60
2022-11-05T02:47:12.895Z,33.70
2022-11-05T02:50:16.985Z,33.90
2022-11-05T02:53:14.180Z,32.10
2022-11-05T02:55:47.395Z,32.50
2022-11-05T02:58:15.411Z,32.20
2022-11-05T03:00:53.100Z,33.20
2022-11-05T03:04:01.002Z,32.20
2022-11-05T03:09:26.771Z,31.20
2022-11-05T03:11:54.809Z,31.70
2022-11-05T03:14:45.698Z,31.40
2022-11-05T03:17:37.968Z,31.80
2022-11-05T03:20:11.554Z,30.50
2022-11-05T03:22:56.015Z,30.50
2022-11-05T03:25:29.513Z,29.80
2022-11-05T03:28:03.677Z,29.10
2022-11-05T03:30:35.725Z,28.70
2022-11-05T03:33:11.155Z,26.90
2022-11-05T03:35:45.222Z,27.20
2022-11-05T03:38:21.622Z,27.10
2022-11-05T03:43:23.807Z,25.10
2022-11-05T03:46:01.029Z,25.10
2022-11-05T03:48:31.704Z,25.60
2022-11-05T03:51:25.396Z,23.60
2022-11-05T03:53:58.537Z,24.10
2022-11-05T03:56:44.788Z,25.10
2022-11-05T03:59:13.845Z,25.60
2022-11-05T04:01:42.488Z,24.30
2022-11-05T04:04:10.739Z,24.30
2022-11-05T04:06:57.334Z,23.30
2022-11-05T04:09:44.158Z,22.70
2022-11-05T04:14:58.535Z,26.00
2022-11-05T04:17:26.706Z,27.80
2022-11-05T04:20:13.006Z,34.20
2022-11-05T04:22:59.613Z,39.10
2022-11-05T04:25:27.883Z,28.40
2022-11-05T04:28:00.617Z,27.20
2022-11-05T04:30:28.840Z,25.90
2022-11-05T04:33:06.106Z,26.00
2022-11-05T04:35:39.874Z,26.40
2022-11-05T04:38:11.967Z,26.20
2022-11-05T04:40:39.976Z,26.10
2022-11-05T04:43:14.584Z,25.80
2022-11-05T04:45:43.565Z,24.60
2022-11-05T04:48:12.684Z,25.70
2022-11-05T04:50:40.867Z,25.60
2022-11-05T04:53:09.140Z,24.60
2022-11-05T04:55:37.414Z,26.60
2022-11-05T04:58:06.404Z,27.30
2022-11-05T05:00:34.439Z,25.60
2022-11-05T05:03:02.555Z,25.90
2022-11-05T05:05:30.835Z,26.00
2022-11-05T05:08:05.447Z,26.20
2022-11-05T05:10:33.406Z,24.70
2022-11-05T05:13:01.338Z,25.20
2022-11-05T05:15:29.254Z,25.00
2022-11-05T05:17:57.328Z,25.10
2022-11-05T05:20:43.730Z,24.10
2022-11-05T05:23:12.055Z,25.40
2022-11-05T05:25:40.276Z,24.10
2022-11-05T05:28:08.355Z,22.70
2022-11-05T05:30:36.965Z,22.20
2022-11-05T05:33:05.024Z,22.00
2022-11-05T05:35:33.019Z,22.50
2022-11-05T05:38:01.055Z,21.50
2022-11-05T05:40:29.024Z,22.40
2022-11-05T05:42:57.094Z,22.20
2022-11-05T05:45:24.945Z,22.80
2022-11-05T05:47:56.107Z,21.60
2022-11-05T05:50:24.177Z,21.10
2022-11-05T05:52:53.893Z,21.90
2022-11-05T05:55:22.066Z,21.00
2022-11-05T05:57:50.037Z,20.30
2022-11-05T06:00:18.205Z,20.60
2022-11-05T06:02:46.547Z,20.50
2022-11-05T06:05:14.870Z,20.00
2022-11-05T06:07:42.932Z,21.00
2022-11-05T06:10:11.006Z,21.50
2022-11-05T06:12:38.971Z,22.60
2022-11-05T06:15:07.456Z,22.70
2022-11-05T06:17:35.426Z,22.40
2022-11-05T06:20:03.834Z,24.50
2022-11-05T06:22:31.876Z,24.30
2022-11-05T06:24:59.947Z,24.00
2022-11-05T06:27:29.563Z,23.90
2022-11-05T06:29:57.633Z,23.50
2022-11-05T06:32:25.598Z,23.30
2022-11-05T06:34:53.776Z,25.20
2022-11-05T06:37:21.712Z,24.70
2022-11-05T06:39:49.723Z,23.50
2022-11-05T06:42:19.074Z,23.30
2022-11-05T06:44:47.593Z,24.30
2022-11-05T06:47:15.665Z,23.90
2022-11-05T06:49:43.663Z,24.10
2022-11-05T06:52:12.627Z,24.80
2022-11-05T06:54:42.474Z,24.60
2022-11-05T06:57:12.056Z,25.20
2022-11-05T06:59:40.334Z,24.90
2022-11-05T07:02:11.809Z,25.30
2022-11-05T07:04:40.163Z,25.50
2022-11-05T07:07:08.227Z,25.30
2022-11-05T07:09:40.617Z,26.40
2022-11-05T07:12:09.373Z,25.70
2022-11-05T07:14:37.466Z,25.40
2022-11-05T07:17:05.537Z,25.20
2022-11-05T07:19:33.462Z,25.90
2022-11-05T07:22:01.487Z,26.40
2022-11-05T07:24:29.651Z,26.10
2022-11-05T07:26:57.719Z,26.70
2022-11-05T07:29:25.796Z,25.70
2022-11-05T07:31:53.860Z,23.60
2022-11-05T07:34:21.939Z,24.50
2022-11-05T07:36:49.919Z,25.20
2022-11-05T07:39:17.861Z,22.80
2022-11-05T07:41:46.061Z,24.60
2022-11-05T07:44:14.739Z,23.20
2022-11-05T07:46:42.685Z,22.60
2022-11-05T07:49:10.571Z,22.60
2022-11-05T07:51:38.777Z,22.20
2022-11-05T07:54:06.699Z,21.00
2022-11-05T07:56:34.792Z,22.80
2022-11-05T07:59:03.676Z,22.00
2022-11-05T08:01:32.052Z,21.70
2022-11-05T08:04:00.862Z,22.20
2022-11-05T08:06:28.820Z,22.20
2022-11-05T08:08:56.743Z,22.40
2022-11-05T08:11:24.758Z,22.80
2022-11-05T08:13:52.722Z,21.30
2022-11-05T08:16:20.691Z,21.00
2022-11-05T08:18:48.732Z,24.20
2022-11-05T08:21:16.836Z,20.30
2022-11-05T08:23:45.519Z,19.30
2022-11-05T08:26:13.598Z,20.40
2022-11-05T08:28:41.768Z,20.30
2022-11-05T08:31:09.842Z,21.80
2022-11-05T08:33:38.120Z,22.60
2022-11-05T08:36:06.905Z,21.10
2022-11-05T08:38:34.982Z,21.10
2022-11-05T08:41:03.359Z,22.60
2022-11-05T08:43:31.433Z,23.30
2022-11-05T08:46:02.475Z,22.50
2022-11-05T08:48:30.541Z,27.30
2022-11-05T08:51:01.251Z,31.40
2022-11-05T08:53:29.258Z,35.80
2022-11-05T08:56:00.796Z,37.00
2022-11-05T08:58:28.971Z,34.10
2022-11-05T09:01:01.828Z,25.00
2022-11-05T09:03:32.905Z,23.80
2022-11-05T09:06:00.968Z,22.60
2022-11-05T09:08:29.197Z,18.90
2022-11-05T09:10:57.937Z,18.80
2022-11-05T09:13:27.295Z,18.20
2022-11-05T09:15:58.275Z,18.70
2022-11-05T09:18:26.759Z,18.20
2022-11-05T09:20:54.833Z,15.40
2022-11-05T09:23:23.006Z,16.40
2022-11-05T09:25:51.072Z,14.60
2022-11-05T09:28:20.676Z,14.90
2022-11-05T09:30:52.813Z,16.40
2022-11-05T09:33:24.152Z,16.00
2022-11-05T09:35:53.742Z,14.70
2022-11-05T09:38:22.096Z,16.80
2022-11-05T09:41:01.768Z,15.70
2022-11-05T09:43:41.062Z,16.00
2022-11-05T09:46:19.166Z,17.60
2022-11-05T09:48:52.520Z,17.10
2022-11-05T09:51:24.137Z,16.20
2022-11-05T09:53:53.771Z,18.30
2022-11-05T09:56:29.680Z,17.90
2022-11-05T09:59:11.859Z,18.00
2022-11-05T10:01:41.377Z,18.30
2022-11-05T10:04:17.143Z,17.80
2022-11-05T10:07:07.748Z,17.30
2022-11-05T10:10:07.945Z,16.10
2022-11-05T10:12:50.990Z,15.60
2022-11-05T10:15:25.114Z,16.20
2022-11-05T10:18:19.123Z,17.00
2022-11-05T10:20:47.703Z,16.20
2022-11-05T10:23:21.679Z,15.70
2022-11-05T10:25:58.767Z,17.10
2022-11-05T10:28:29.657Z,17.60
2022-11-05T10:31:00.947Z,18.40
2022-11-05T10:33:54.521Z,17.30
2022-11-05T10:36:35.292Z,18.50
2022-11-05T10:39:15.550Z,19.00
2022-11-05T10:42:01.947Z,17.90
2022-11-05T10:44:39.132Z,19.30
2022-11-05T10:47:33.838Z,16.80
2022-11-05T10:50:05.208Z,16.30
2022-11-05T10:52:40.135Z,17.50
2022-11-05T10:55:26.003Z,16.60
2022-11-05T10:57:54.480Z,16.10
2022-11-05T11:00:25.351Z,16.40
2022-11-05T11:02:54.411Z,15.90
2022-11-05T11:05:31.601Z,16.50
2022-11-05T11:08:11.653Z,16.10
2022-11-05T11:10:50.484Z,15.90
2022-11-05T11:13:48.042Z,16.30
2022-11-05T11:16:21.782Z,16.10
2022-11-05T11:19:00.877Z,16.50
2022-11-05T11:21:31.402Z,16.90
2022-11-05T11:24:06.999Z,17.50
2022-11-05T11:26:40.454Z,16.30
2022-11-05T11:29:26.236Z,16.30
2022-11-05T11:31:59.549Z,16.80
2022-11-05T11:34:31.187Z,15.80
2022-11-05T11:37:08.770Z,18.40
2022-11-05T11:39:39.514Z,19.90
2022-11-05T11:42:18.341Z,20.60
2022-11-05T11:44:48.050Z,22.60
2022-11-05T11:47:18.998Z,21.90
2022-11-05T11:49:49.723Z,23.50
2022-11-05T11:52:31.926Z,24.40
2022-11-05T11:55:20.007Z,23.90
2022-11-05T11:57:51.116Z,22.80
2022-11-05T12:00:21.273Z,23.50
2022-11-05T12:03:15.937Z,24.80
2022-11-05T12:05:47.477Z,24.10
2022-11-05T12:09:03.404Z,23.20
2022-11-05T12:11:55.616Z,22.50
2022-11-05T12:14:48.366Z,22.40
2022-11-05T12:17:19.509Z,24.00
2022-11-05T12:19:53.209Z,24.00
2022-11-05T12:22:39.573Z,24.20
2022-11-05T12:25:18.743Z,25.40
2022-11-05T12:27:55.898Z,24.50
2022-11-05T12:30:24.310Z,24.00
2022-11-05T12:33:04.747Z,22.10
2022-11-05T12:35:58.310Z,22.50
2022-11-05T12:38:26.420Z,24.30
2022-11-05T12:41:06.570Z,23.90
2022-11-05T12:44:02.388Z,23.00
2022-11-05T12:47:08.040Z,22.90
2022-11-05T12:49:43.696Z,23.40
2022-11-05T12:52:39.722Z,24.10
2022-11-05T12:55:24.187Z,22.20
2022-11-05T12:57:57.571Z,21.40
2022-11-05T13:00:28.154Z,24.90
2022-11-05T13:02:58.834Z,21.60
2022-11-05T13:05:29.874Z,23.30
2022-11-05T13:08:07.779Z,20.70
2022-11-05T13:10:46.811Z,19.50
2022-11-05T13:14:02.390Z,18.90
2022-11-05T13:16:36.607Z,18.20
2022-11-05T13:19:35.303Z,18.60
2022-11-05T13:22:21.498Z,17.80
2022-11-05T13:24:53.106Z,18.20
2022-11-05T13:27:55.327Z,19.50
2022-11-05T13:30:26.685Z,18.90
2022-11-05T13:33:04.264Z,19.00
2022-11-05T13:35:48.833Z,18.70
2022-11-05T13:38:44.234Z,18.90
2022-11-05T13:41:31.662Z,20.50
2022-11-05T13:44:24.746Z,20.20
2022-11-05T13:47:25.061Z,19.90
2022-11-05T13:49:55.881Z,21.60
2022-11-05T13:52:49.561Z,21.10
2022-11-05T13:55:52.649Z,21.30
2022-11-05T13:58:43.657Z,20.00
2022-11-05T14:01:30.189Z,20.90
2022-11-05T14:06:33.834Z,20.10
2022-11-05T14:09:11.891Z,19.70
2022-11-05T14:11:50.090Z,17.70
2022-11-05T14:14:23.193Z,19.70
2022-11-05T14:17:09.701Z,19.00
2022-11-05T14:19:51.999Z,19.10
2022-11-05T14:22:41.155Z,18.70
2022-11-05T14:25:18.145Z,19.50
2022-11-05T14:27:51.950Z,19.30
2022-11-05T14:30:41.209Z,18.90
2022-11-05T14:33:24.454Z,19.90
2022-11-05T14:36:20.996Z,21.60
2022-11-05T14:38:51.563Z,19.60
2022-11-05T14:41:20.961Z,20.50
2022-11-05T14:44:10.288Z,20.40
2022-11-05T14:46:51.159Z,21.40
2022-11-05T14:49:24.869Z,24.10
2022-11-05T14:51:56.119Z,24.70
2022-11-05T14:54:24.493Z,27.40
2022-11-05T14:56:56.264Z,27.10
2022-11-05T14:59:24.845Z,27.90
2022-11-05T15:02:14.818Z,28.00
2022-11-05T15:04:45.794Z,28.10
2022-11-05T15:07:35.859Z,26.90
2022-11-05T15:10:12.043Z,26.30
2022-11-05T15:12:52.265Z,26.90
2022-11-05T15:15:30.683Z,30.90
2022-11-05T15:18:03.871Z,31.60
2022-11-05T15:20:40.375Z,33.10
2022-11-05T15:23:14.432Z,34.90
2022-11-05T15:25:59.934Z,34.80
2022-11-05T15:28:37.141Z,39.20
2022-11-05T15:31:14.105Z,44.60
2022-11-05T15:33:45.254Z,48.40
2022-11-05T15:36:32.058Z,46.40
2022-11-05T15:39:27.816Z,41.60
2022-11-05T15:41:48.066Z,44.50
2022-11-05T15:44:28.282Z,47.60
2022-11-05T15:47:17.698Z,47.40
2022-11-05T15:49:50.185Z,49.10
2022-11-05T15:52:20.909Z,46.10
2022-11-05T15:55:17.851Z,45.80
2022-11-05T15:58:07.058Z,46.10
2022-11-05T16:00:36.938Z,46.70
2022-11-05T16:03:06.862Z,50.20
2022-11-05T16:05:42.194Z,58.90
2022-11-05T16:08:20.797Z,57.90
2022-11-05T16:10:51.991Z,54.50
2022-11-05T16:13:29.240Z,53.00
2022-11-05T16:16:01.441Z,53.20
2022-11-05T16:18:35.805Z,55.50
2022-11-05T16:21:19.058Z,55.30
2022-11-05T16:23:49.814Z,53.40
2022-11-05T16:27:01.966Z,53.10
2022-11-05T16:29:32.525Z,52.10
2022-11-05T16:32:03.807Z,52.10
2022-11-05T16:34:41.484Z,52.70
2022-11-05T16:37:15.119Z,54.10
2022-11-05T16:39:43.145Z,56.80
2022-11-05T16:42:34.148Z,59.90
2022-11-05T16:45:02.119Z,64.40
2022-11-05T16:47:31.629Z,67.10
2022-11-05T16:49:59.603Z,66.60
2022-11-05T16:52:27.772Z,64.70
2022-11-05T16:54:55.800Z,55.60
2022-11-05T16:57:29.389Z,55.70
2022-11-05T16:59:59.366Z,52.90
2022-11-05T17:02:28.409Z,63.00
2022-11-05T17:04:56.471Z,56.00
2022-11-05T17:07:24.540Z,52.80
2022-11-05T17:09:52.575Z,51.00
2022-11-05T17:12:20.639Z,52.50
2022-11-05T17:14:48.712Z,48.10
2022-11-05T17:17:16.686Z,45.70
2022-11-05T17:19:45.677Z,44.90
2022-11-05T17:22:13.751Z,48.20
2022-11-05T17:24:41.824Z,48.80
2022-11-05T17:27:09.991Z,51.60
2022-11-05T17:29:37.945Z,54.80
2022-11-05T17:32:06.417Z,56.70
2022-11-05T17:34:34.439Z,58.90
2022-11-05T17:37:02.484Z,59.20
2022-11-05T17:39:31.864Z,55.30
2022-11-05T17:42:00.273Z,53.10
2022-11-05T17:44:28.287Z,52.70
2022-11-05T17:46:56.312Z,53.10
2022-11-05T17:49:24.489Z,50.70
2022-11-05T17:51:52.559Z,50.50
2022-11-05T17:54:20.630Z,49.80
2022-11-05T17:56:48.566Z,49.70
2022-11-05T17:59:16.870Z,48.80
2022-11-05T18:01:46.224Z,47.80
2022-11-05T18:04:14.656Z,47.10
2022-11-05T18:06:43.062Z,46.70
2022-11-05T18:09:12.135Z,50.20
2022-11-05T18:11:41.330Z,52.30
2022-11-05T18:14:09.623Z,53.90
2022-11-05T18:16:37.741Z,54.40
2022-11-05T18:19:06.054Z,59.80
2022-11-05T18:21:34.022Z,65.60
2022-11-05T18:24:03.843Z,58.90
2022-11-05T18:26:32.521Z,55.80
2022-11-05T18:29:05.800Z,54.10
2022-11-05T18:31:33.808Z,52.00
2022-11-05T18:34:02.132Z,50.50
2022-11-05T18:36:32.394Z,50.90
2022-11-05T18:39:02.494Z,45.80
2022-11-05T18:41:30.577Z,43.70
2022-11-05T18:44:03.681Z,45.90
2022-11-05T18:46:57.153Z,44.90
2022-11-05T18:49:21.723Z,43.10
2022-11-05T18:51:49.908Z,40.30
2022-11-05T18:54:17.974Z,39.90
2022-11-05T18:56:46.646Z,42.00
2022-11-05T19:02:09.034Z,42.50
2022-11-05T19:04:37.503Z,45.30
2022-11-05T19:07:06.899Z,44.00
2022-11-05T19:09:37.006Z,45.50
2022-11-05T19:12:06.439Z,46.00
2022-11-05T19:14:35.835Z,45.50
2022-11-05T19:17:04.460Z,48.00
2022-11-05T19:19:32.481Z,46.60
2022-11-05T19:22:00.765Z,47.60
2022-11-05T19:24:29.119Z,48.00
2022-11-05T19:26:57.331Z,48.30
2022-11-05T19:29:25.492Z,46.30
2022-11-05T19:31:53.665Z,48.10
2022-11-05T19:34:21.633Z,49.80
2022-11-05T19:36:49.640Z,50.50
2022-11-05T19:39:17.625Z,50.80
2022-11-05T19:41:45.768Z,49.20
2022-11-05T19:44:13.713Z,49.90
2022-11-05T19:46:41.784Z,51.70
2022-11-05T19:49:10.679Z,54.00
2022-11-05T19:51:39.602Z,56.30
2022-11-05T19:54:09.181Z,54.50
2022-11-05T19:56:38.467Z,57.80
2022-11-05T19:59:09.513Z,61.00
2022-11-05T20:01:37.843Z,61.10
2022-11-05T20:04:06.349Z,60.90
2022-11-05T20:06:38.784Z,61.90
2022-11-05T20:09:26.058Z,63.70
2022-11-05T20:11:56.725Z,63.60
2022-11-05T20:14:26.416Z,61.80
2022-11-05T20:16:54.484Z,64.20
2022-11-05T20:19:23.483Z,64.80
2022-11-05T20:21:51.873Z,68.30
2022-11-05T20:24:25.140Z,66.70
2022-11-05T20:26:55.409Z,67.20
2022-11-05T20:29:30.498Z,62.80
2022-11-05T20:32:04.219Z,64.30
2022-11-05T20:34:34.132Z,63.20
2022-11-05T20:37:02.100Z,60.20
2022-11-05T20:39:30.179Z,60.00
2022-11-05T20:42:00.700Z,60.70
2022-11-05T20:44:29.085Z,56.10
2022-11-05T20:46:57.365Z,55.30
2022-11-05T20:49:25.952Z,56.50
2022-11-05T20:51:54.528Z,54.00
2022-11-05T20:54:24.323Z,54.70
2022-11-05T20:56:52.316Z,54.60
2022-11-05T20:59:20.284Z,54.00
2022-11-05T21:01:50.222Z,53.90
2022-11-05T21:04:18.202Z,53.90
2022-11-05T21:06:46.140Z,54.70
2022-11-05T21:09:14.205Z,54.30
2022-11-05T21:12:00.611Z,51.30
2022-11-05T21:14:28.581Z,52.80
2022-11-05T21:16:56.555Z,55.00
2022-11-05T21:19:24.529Z,55.40
2022-11-05T21:21:52.584Z,53.50
2022-11-05T21:24:20.875Z,55.40
2022-11-05T21:26:50.100Z,54.50
2022-11-05T21:29:18.846Z,52.60
2022-11-05T21:31:47.225Z,56.40
2022-11-05T21:34:16.014Z,54.50
2022-11-05T21:36:44.104Z,55.90
2022-11-05T21:39:13.725Z,54.60
2022-11-05T21:41:42.898Z,55.30
2022-11-05T21:44:11.176Z,55.10
2022-11-05T21:46:39.654Z,56.80
2022-11-05T21:49:07.852Z,57.00
2022-11-05T21:52:14.404Z,56.10
2022-11-05T21:55:01.004Z,56.90
2022-11-05T21:57:47.729Z,58.20
2022-11-05T22:00:15.786Z,55.90
2022-11-05T22:02:43.814Z,55.70
2022-11-05T22:05:12.138Z,55.20
2022-11-05T22:07:40.519Z,53.10
2022-11-05T22:10:15.841Z,51.30
2022-11-05T22:12:45.877Z,49.00
2022-11-05T22:15:14.053Z,47.70
2022-11-05T22:17:46.668Z,47.70
2022-11-05T22:20:16.442Z,49.40
2022-11-05T22:22:45.030Z,51.30
2022-11-05T22:25:14.463Z,49.50
2022-11-05T22:27:44.109Z,50.80
2022-11-05T22:30:13.593Z,53.20
2022-11-05T22:32:41.928Z,48.70
2022-11-05T22:35:10.404Z,49.90
2022-11-05T22:37:38.776Z,47.10
2022-11-05T22:40:07.266Z,46.80
2022-11-05T22:42:35.371Z,45.80
2022-11-05T22:45:03.927Z,43.20
2022-11-05T22:47:31.928Z,42.30
2022-11-05T22:50:00.172Z,42.80
2022-11-05T22:52:28.232Z,41.50
2022-11-05T22:54:56.310Z,41.00
2022-11-05T22:57:24.378Z,40.30
2022-11-05T22:59:52.452Z,39.30
2022-11-05T23:02:20.676Z,39.00
2022-11-05T23:04:53.614Z,40.80
2022-11-05T23:07:40.220Z,42.90
2022-11-05T23:10:28.052Z,41.00
2022-11-05T23:12:56.228Z,40.80
2022-11-05T23:15:43.241Z,40.90
2022-11-05T23:18:30.156Z,43.40
2022-11-05T23:21:20.542Z,38.50
2022-11-05T23:24:05.943Z,40.80
2022-11-05T23:26:51.220Z,40.50
2022-11-05T23:29:22.145Z,42.50
2022-11-05T23:32:09.718Z,41.20
2022-11-05T23:34:38.362Z,42.30
2022-11-05T23:37:25.378Z,40.50
2022-11-05T23:39:54.263Z,42.70
2022-11-05T23:42:41.395Z,42.70
2022-11-05T23:45:28.703Z,41.40
2022-11-05T23:48:15.361Z,42.50
2022-11-05T23:50:49.628Z,41.40
2022-11-05T23:53:18.929Z,42.10
2022-11-05T23:55:47.295Z,43.30
2022-11-05T23:58:16.926Z,41.40
